Time,TemperatureF,DewpointF,PressureIn,WindDirection,WindDirectionDegrees,WindSpeedMPH,WindSpeedGustMPH,Humidity,HourlyPrecipIn,Conditions,Clouds,dailyrainin,SoftwareType,DateUTC
2013-02-24 00:01:00,4.0,1.0,30.01,North,360,0.0,-999.0,86,-99.99,,,-99.99,,2013-02-24 06:01:00,
2013-02-24 00:11:00,4.0,1.0,30.01,North,360,0.0,-999.0,86,-99.99,,,-99.99,,2013-02-24 06:11:00,
2013-02-24 00:21:00,4.0,1.0,30.01,North,360,0.0,-999.0,86,-99.99,,,-99.99,,2013-02-24 06:21:00,
2013-02-24 00:31:00,4.0,1.0,30.02,North,360,0.0,-999.0,86,-99.99,,,-99.99,,2013-02-24 06:31:00,
2013-02-24 00:42:00,4.0,1.0,30.02,North,360,0.0,-999.0,86,-99.99,,,-99.99,,2013-02-24 06:42:00,
2013-02-24 00:52:00,3.0,0.0,30.02,North,360,0.0,-999.0,87,-99.99,,,-99.99,,2013-02-24 06:52:00,
2013-02-24 01:01:00,3.0,0.0,30.01,North,360,0.0,-999.0,87,-99.99,,,-99.99,,2013-02-24 07:01:00,
2013-02-24 01:12:00,3.0,0.0,30.01,North,360,0.0,-999.0,87,-99.99,,,-99.99,,2013-02-24 07:12:00,
2013-02-24 01:21:00,3.0,0.0,30.02,North,360,0.0,-999.0,87,-99.99,,,-99.99,,2013-02-24 07:21:00,
2013-02-24 01:31:00,3.0,0.0,30.03,North,360,0.0,-999.0,87,-99.99,,,-99.99,,2013-02-24 07:31:00,
2013-02-24 01:42:00,3.0,0.0,30.03,North,360,0.0,-999.0,87,-99.99,,,-99.99,,2013-02-24 07:42:00,
2013-02-24 01:52:00,1.0,-2.0,30.03,North,360,0.0,-999.0,86,-99.99,,,-99.99,,2013-02-24 07:52:00,
2013-02-24 02:01:00,0.0,-3.0,30.03,North,360,0.0,-999.0,87,-99.99,,,-99.99,,2013-02-24 08:01:00,
2013-02-24 02:11:00,0.0,-3.0,30.03,North,360,0.0,-999.0,87,-99.99,,,-99.99,,2013-02-24 08:11:00,
2013-02-24 02:22:00,1.0,-2.0,30.03,North,360,0.0,-999.0,87,-99.99,,,-99.99,,2013-02-24 08:22:00,
2013-02-24 02:31:00,2.0,-1.0,30.03,North,360,0.0,-999.0,87,-99.99,,,-99.99,,2013-02-24 08:31:00,
2013-02-24 02:42:00,2.0,-1.0,30.03,North,360,0.0,-999.0,87,-99.99,,,-99.99,,2013-02-24 08:42:00,
2013-02-24 02:54:00,2.0,-1.0,30.03,North,360,0.0,-999.0,87,-99.99,,,-99.99,,2013-02-24 08:54:00,
2013-02-24 03:01:00,2.0,-1.0,30.03,North,360,0.0,-999.0,87,-99.99,,,-99.99,,2013-02-24 09:01:00,
2013-02-24 03:11:00,2.0,-1.0,30.03,North,360,0.0,-999.0,87,-99.99,,,-99.99,,2013-02-24 09:11:00,
2013-02-24 03:21:00,2.0,-1.0,30.03,North,360,0.0,-999.0,86,-99.99,,,-99.99,,2013-02-24 09:21:00,
2013-02-24 03:31:00,2.0,-1.0,30.03,North,360,0.0,-999.0,87,-99.99,,,-99.99,,2013-02-24 09:31:00,
2013-02-24 03:42:00,2.0,-1.0,30.03,North,360,0.0,-999.0,87,-99.99,,,-99.99,,2013-02-24 09:42:00,
2013-02-24 03:51:00,2.0,-1.0,30.03,North,360,0.0,-999.0,87,-99.99,,,-99.99,,2013-02-24 09:51:00,
2013-02-24 04:01:00,2.0,-1.0,30.03,North,360,0.0,-999.0,86,-99.99,,,-99.99,,2013-02-24 10:01:00,
2013-02-24 04:11:00,2.0,-1.0,30.03,North,360,0.0,-999.0,86,-99.99,,,-99.99,,2013-02-24 10:11:00,
2013-02-24 04:21:00,2.0,-1.0,30.04,North,360,0.0,-999.0,86,-99.99,,,-99.99,,2013-02-24 10:21:00,
2013-02-24 04:32:00,2.0,-1.0,30.05,North,360,0.0,-999.0,86,-99.99,,,-99.99,,2013-02-24 10:32:00,
2013-02-24 04:41:00,2.0,-1.0,30.05,North,360,0.0,-999.0,86,-99.99,,,-99.99,,2013-02-24 10:41:00,
2013-02-24 04:51:00,2.0,-1.0,30.05,North,360,0.0,-999.0,86,-99.99,,,-99.99,,2013-02-24 10:51:00,
2013-02-24 05:01:00,2.0,-1.0,30.05,North,360,0.0,-999.0,86,-99.99,,,-99.99,,2013-02-24 11:01:00,
2013-02-24 05:11:00,2.0,-1.0,30.05,North,360,0.0,-999.0,86,-99.99,,,-99.99,,2013-02-24 11:11:00,
2013-02-24 05:21:00,2.0,-1.0,30.05,North,360,0.0,-999.0,86,-99.99,,,-99.99,,2013-02-24 11:21:00,
2013-02-24 05:32:00,1.0,-2.0,30.06,North,360,0.0,-999.0,85,-99.99,,,-99.99,,2013-02-24 11:32:00,
2013-02-24 05:41:00,1.0,-2.0,30.06,North,360,0.0,-999.0,85,-99.99,,,-99.99,,2013-02-24 11:41:00,
2013-02-24 05:52:00,0.0,-3.0,30.06,North,360,0.0,-999.0,85,-99.99,,,-99.99,,2013-02-24 11:52:00,
2013-02-24 06:01:00,0.0,-3.0,30.06,North,360,0.0,-999.0,85,-99.99,,,-99.99,,2013-02-24 12:01:00,
2013-02-24 06:11:00,0.0,-3.0,30.06,North,360,0.0,-999.0,85,-99.99,,,-99.99,,2013-02-24 12:11:00,
2013-02-24 06:21:00,0.0,-3.0,30.07,North,360,0.0,-999.0,85,-99.99,,,-99.99,,2013-02-24 12:21:00,
2013-02-24 06:32:00,0.0,-3.0,30.07,North,360,0.0,-999.0,85,-99.99,,,-99.99,,2013-02-24 12:32:00,
2013-02-24 06:46:00,0.0,-3.0,30.07,North,360,0.0,-999.0,85,-99.99,,,-99.99,,2013-02-24 12:46:00,
2013-02-24 06:55:00,0.0,-3.0,30.08,North,360,0.0,-999.0,86,-99.99,,,-99.99,,2013-02-24 12:55:00,
2013-02-24 07:11:00,1.0,-2.0,30.07,North,360,0.0,-999.0,86,-99.99,,,-99.99,,2013-02-24 13:11:00,
2013-02-24 07:17:00,1.0,-2.0,30.07,North,360,0.0,-999.0,86,-99.99,,,-99.99,,2013-02-24 13:17:00,
2013-02-24 07:33:00,1.0,-2.0,30.08,North,360,0.0,-999.0,86,-99.99,,,-99.99,,2013-02-24 13:33:00,
2013-02-24 07:44:00,1.0,-2.0,30.08,North,360,0.0,-999.0,86,-99.99,,,-99.99,,2013-02-24 13:44:00,
2013-02-24 07:52:00,2.0,-1.0,30.08,North,360,0.0,-999.0,86,-99.99,,,-99.99,,2013-02-24 13:52:00,
2013-02-24 08:04:00,3.0,0.0,30.09,North,360,0.0,-999.0,86,-99.99,,,-99.99,,2013-02-24 14:04:00,
2013-02-24 08:13:00,3.0,0.0,30.09,North,360,0.0,-999.0,87,-99.99,,,-99.99,,2013-02-24 14:13:00,
2013-02-24 08:24:00,3.0,0.0,30.09,North,360,0.0,-999.0,87,-99.99,,,-99.99,,2013-02-24 14:24:00,
2013-02-24 08:44:00,4.0,1.0,30.09,North,360,0.0,-999.0,86,-99.99,,,-99.99,,2013-02-24 14:44:00,
2013-02-24 08:53:00,5.0,2.0,30.10,North,360,0.0,-999.0,87,-99.99,,,-99.99,,2013-02-24 14:53:00,
2013-02-24 09:02:00,6.0,3.0,30.10,North,360,0.0,-999.0,87,-99.99,,,-99.99,,2013-02-24 15:02:00,
2013-02-24 09:13:00,7.0,4.0,30.10,North,360,0.0,-999.0,87,-99.99,,,-99.99,,2013-02-24 15:13:00,
2013-02-24 09:23:00,7.0,4.0,30.10,North,360,0.0,-999.0,87,-99.99,,,-99.99,,2013-02-24 15:23:00,
2013-02-24 09:32:00,9.0,6.0,30.10,North,360,0.0,-999.0,88,-99.99,,,-99.99,,2013-02-24 15:32:00,
2013-02-24 09:42:00,9.0,6.0,30.10,North,360,0.0,-999.0,88,-99.99,,,-99.99,,2013-02-24 15:42:00,
2013-02-24 09:52:00,11.0,8.0,30.11,North,360,0.0,-999.0,89,-99.99,,,-99.99,,2013-02-24 15:52:00,
2013-02-24 10:01:00,12.0,9.0,30.11,North,360,0.0,-999.0,89,-99.99,,,-99.99,,2013-02-24 16:01:00,
2013-02-24 10:11:00,12.0,9.0,30.11,North,360,0.0,-999.0,89,-99.99,,,-99.99,,2013-02-24 16:11:00,
2013-02-24 10:21:00,11.0,8.0,30.11,NW,309,0.0,-999.0,88,-99.99,,,-99.99,,2013-02-24 16:21:00,
2013-02-24 10:32:00,11.0,8.0,30.12,North,360,0.0,-999.0,89,-99.99,,,-99.99,,2013-02-24 16:32:00,
2013-02-24 10:41:00,11.0,8.0,30.12,North,360,0.0,-999.0,89,-99.99,,,-99.99,,2013-02-24 16:41:00,
2013-02-24 10:52:00,13.0,11.0,30.12,North,360,0.0,-999.0,90,-99.99,,,-99.99,,2013-02-24 16:52:00,
2013-02-24 11:01:00,16.0,14.0,30.12,North,360,0.0,-999.0,90,-99.99,,,-99.99,,2013-02-24 17:01:00,
2013-02-24 11:11:00,16.0,14.0,30.12,North,360,0.0,-999.0,90,-99.99,,,-99.99,,2013-02-24 17:11:00,
2013-02-24 11:21:00,18.0,15.0,30.13,NW,308,2.0,-999.0,89,-99.99,,,-99.99,,2013-02-24 17:21:00,
2013-02-24 11:32:00,18.0,15.0,30.14,NW,308,0.0,-999.0,88,-99.99,,,-99.99,,2013-02-24 17:32:00,
2013-02-24 11:41:00,18.0,15.0,30.14,NW,308,0.0,-999.0,88,-99.99,,,-99.99,,2013-02-24 17:41:00,
2013-02-24 11:52:00,19.0,16.0,30.13,West,279,3.0,-999.0,86,-99.99,,,-99.99,,2013-02-24 17:52:00,
2013-02-24 12:01:00,21.0,17.0,30.14,West,278,3.0,-999.0,85,-99.99,,,-99.99,,2013-02-24 18:01:00,
2013-02-24 12:22:00,20.0,15.0,30.14,West,264,3.0,-999.0,81,-99.99,,,-99.99,,2013-02-24 18:22:00,
2013-02-24 12:32:00,21.0,16.0,30.14,West,259,3.0,-999.0,79,-99.99,,,-99.99,,2013-02-24 18:32:00,
2013-02-24 12:42:00,21.0,16.0,30.14,West,259,3.0,-999.0,79,-99.99,,,-99.99,,2013-02-24 18:42:00,
2013-02-24 12:52:00,21.0,16.0,30.14,West,259,3.0,-999.0,79,-99.99,,,-99.99,,2013-02-24 18:52:00,
2013-02-24 13:01:00,21.0,15.0,30.14,WSW,251,3.0,-999.0,78,-99.99,,,-99.99,,2013-02-24 19:01:00,
2013-02-24 13:11:00,21.0,15.0,30.14,WSW,251,3.0,-999.0,78,-99.99,,,-99.99,,2013-02-24 19:11:00,
2013-02-24 13:22:00,22.0,16.0,30.14,WSW,241,3.0,-999.0,77,-99.99,,,-99.99,,2013-02-24 19:22:00,
2013-02-24 13:32:00,22.0,16.0,30.13,WSW,239,3.0,-999.0,76,-99.99,,,-99.99,,2013-02-24 19:32:00,
2013-02-24 13:41:00,22.0,16.0,30.13,WSW,239,3.0,-999.0,76,-99.99,,,-99.99,,2013-02-24 19:41:00,
2013-02-24 13:52:00,22.0,16.0,30.13,SW,230,4.0,-999.0,76,-99.99,,,-99.99,,2013-02-24 19:52:00,
2013-02-24 14:02:00,22.0,16.0,30.12,SW,227,5.0,-999.0,76,-99.99,,,-99.99,,2013-02-24 20:02:00,
2013-02-24 14:11:00,22.0,16.0,30.12,SW,227,5.0,-999.0,76,-99.99,,,-99.99,,2013-02-24 20:11:00,
2013-02-24 14:21:00,23.0,16.0,30.12,SW,225,4.0,-999.0,75,-99.99,,,-99.99,,2013-02-24 20:21:00,
2013-02-24 14:31:00,22.0,16.0,30.11,SW,222,5.0,-999.0,76,-99.99,,,-99.99,,2013-02-24 20:31:00,
2013-02-24 14:41:00,22.0,16.0,30.11,SW,222,5.0,-999.0,76,-99.99,,,-99.99,,2013-02-24 20:41:00,
2013-02-24 14:52:00,22.0,15.0,30.11,SSW,206,6.0,-999.0,74,-99.99,,,-99.99,,2013-02-24 20:52:00,
2013-02-24 15:01:00,22.0,15.0,30.11,SSW,198,5.0,-999.0,75,-99.99,,,-99.99,,2013-02-24 21:01:00,
2013-02-24 15:11:00,22.0,15.0,30.11,SSW,198,5.0,-999.0,75,-99.99,,,-99.99,,2013-02-24 21:11:00,
2013-02-24 15:21:00,23.0,16.0,30.11,SSW,193,5.0,-999.0,74,-99.99,,,-99.99,,2013-02-24 21:21:00,
2013-02-24 15:32:00,22.0,15.0,30.11,South,173,6.0,-999.0,74,-99.99,,,-99.99,,2013-02-24 21:32:00,
2013-02-24 15:42:00,22.0,15.0,30.11,South,173,6.0,-999.0,74,-99.99,,,-99.99,,2013-02-24 21:42:00,
2013-02-24 15:52:00,22.0,15.0,30.11,South,169,6.0,-999.0,73,-99.99,,,-99.99,,2013-02-24 21:52:00,
2013-02-24 16:01:00,22.0,15.0,30.11,South,169,3.0,-999.0,74,-99.99,,,-99.99,,2013-02-24 22:01:00,
2013-02-24 16:11:00,22.0,15.0,30.11,South,169,3.0,-999.0,74,-99.99,,,-99.99,,2013-02-24 22:11:00,
2013-02-24 16:21:00,22.0,15.0,30.11,South,169,3.0,-999.0,74,-99.99,,,-99.99,,2013-02-24 22:21:00,
2013-02-24 16:31:00,20.0,13.0,30.11,South,169,0.0,-999.0,73,-99.99,,,-99.99,,2013-02-24 22:31:00,
2013-02-24 16:41:00,20.0,13.0,30.11,South,169,0.0,-999.0,73,-99.99,,,-99.99,,2013-02-24 22:41:00,
2013-02-24 16:52:00,20.0,13.0,30.11,South,169,0.0,-999.0,75,-99.99,,,-99.99,,2013-02-24 22:52:00,
2013-02-24 17:02:00,19.0,13.0,30.11,South,169,0.0,-999.0,77,-99.99,,,-99.99,,2013-02-24 23:02:00,
2013-02-24 17:11:00,19.0,13.0,30.11,South,169,0.0,-999.0,77,-99.99,,,-99.99,,2013-02-24 23:11:00,
2013-02-24 17:21:00,18.0,12.0,30.11,SSE,168,0.0,-999.0,78,-99.99,,,-99.99,,2013-02-24 23:21:00,
2013-02-24 17:31:00,19.0,15.0,30.11,South,169,0.0,-999.0,85,-99.99,,,-99.99,,2013-02-24 23:31:00,
2013-02-24 17:42:00,19.0,15.0,30.11,South,169,0.0,-999.0,85,-99.99,,,-99.99,,2013-02-24 23:42:00,
2013-02-24 17:52:00,19.0,13.0,30.11,SSE,168,0.0,-999.0,78,-99.99,,,-99.99,,2013-02-24 23:52:00,
2013-02-24 18:01:00,18.0,12.0,30.11,SSE,168,0.0,-999.0,77,-99.99,,,-99.99,,2013-02-25 00:01:00,
2013-02-24 18:11:00,18.0,12.0,30.11,SSE,168,0.0,-999.0,77,-99.99,,,-99.99,,2013-02-25 00:11:00,
2013-02-24 18:21:00,17.0,11.0,30.12,SSE,168,0.0,-999.0,78,-99.99,,,-99.99,,2013-02-25 00:21:00,
2013-02-24 18:32:00,17.0,12.0,30.12,South,169,0.0,-999.0,79,-99.99,,,-99.99,,2013-02-25 00:32:00,
2013-02-24 18:42:00,17.0,12.0,30.12,South,169,0.0,-999.0,79,-99.99,,,-99.99,,2013-02-25 00:42:00,
2013-02-24 18:51:00,17.0,12.0,30.13,South,169,0.0,-999.0,80,-99.99,,,-99.99,,2013-02-25 00:51:00,
2013-02-24 19:01:00,17.0,12.0,30.13,South,169,1.0,-999.0,80,-99.99,,,-99.99,,2013-02-25 01:01:00,
2013-02-24 19:11:00,17.0,12.0,30.13,South,169,1.0,-999.0,80,-99.99,,,-99.99,,2013-02-25 01:11:00,
2013-02-24 19:21:00,17.0,12.0,30.13,South,169,1.0,-999.0,80,-99.99,,,-99.99,,2013-02-25 01:21:00,
2013-02-24 19:31:00,16.0,11.0,30.13,South,169,0.0,-999.0,80,-99.99,,,-99.99,,2013-02-25 01:31:00,
2013-02-24 19:42:00,16.0,11.0,30.13,South,169,0.0,-999.0,80,-99.99,,,-99.99,,2013-02-25 01:42:00,
2013-02-24 19:52:00,16.0,11.0,30.13,South,169,0.0,-999.0,80,-99.99,,,-99.99,,2013-02-25 01:52:00,
2013-02-24 20:01:00,16.0,11.0,30.14,SSE,168,0.0,-999.0,80,-99.99,,,-99.99,,2013-02-25 02:01:00,
2013-02-24 20:11:00,16.0,11.0,30.14,SSE,168,0.0,-999.0,80,-99.99,,,-99.99,,2013-02-25 02:11:00,
2013-02-24 20:21:00,16.0,11.0,30.14,South,169,2.0,-999.0,81,-99.99,,,-99.99,,2013-02-25 02:21:00,
2013-02-24 20:31:00,16.0,11.0,30.14,South,169,0.0,-999.0,81,-99.99,,,-99.99,,2013-02-25 02:31:00,
2013-02-24 20:41:00,16.0,11.0,30.14,South,169,0.0,-999.0,81,-99.99,,,-99.99,,2013-02-25 02:41:00,
2013-02-24 20:52:00,16.0,11.0,30.14,SSE,168,0.0,-999.0,81,-99.99,,,-99.99,,2013-02-25 02:52:00,
2013-02-24 21:01:00,16.0,11.0,30.14,SSE,168,0.0,-999.0,81,-99.99,,,-99.99,,2013-02-25 03:01:00,
2013-02-24 21:11:00,16.0,11.0,30.14,SSE,168,0.0,-999.0,81,-99.99,,,-99.99,,2013-02-25 03:11:00,
2013-02-24 21:21:00,16.0,11.0,30.14,South,169,0.0,-999.0,81,-99.99,,,-99.99,,2013-02-25 03:21:00,
2013-02-24 21:31:00,16.0,11.0,30.14,SSE,168,1.0,-999.0,82,-99.99,,,-99.99,,2013-02-25 03:31:00,
2013-02-24 21:41:00,16.0,11.0,30.14,SSE,168,1.0,-999.0,82,-99.99,,,-99.99,,2013-02-25 03:41:00,
2013-02-24 21:51:00,15.0,11.0,30.15,South,169,0.0,-999.0,82,-99.99,,,-99.99,,2013-02-25 03:51:00,
2013-02-24 22:01:00,14.0,10.0,30.14,South,169,0.0,-999.0,82,-99.99,,,-99.99,,2013-02-25 04:01:00,
2013-02-24 22:11:00,14.0,10.0,30.14,South,169,0.0,-999.0,82,-99.99,,,-99.99,,2013-02-25 04:11:00,
2013-02-24 22:21:00,13.0,9.0,30.14,South,169,0.0,-999.0,84,-99.99,,,-99.99,,2013-02-25 04:21:00,
2013-02-24 22:31:00,14.0,10.0,30.14,South,169,0.0,-999.0,84,-99.99,,,-99.99,,2013-02-25 04:31:00,
2013-02-24 22:41:00,14.0,10.0,30.14,South,169,0.0,-999.0,84,-99.99,,,-99.99,,2013-02-25 04:41:00,
2013-02-24 22:52:00,14.0,10.0,30.14,South,169,0.0,-999.0,85,-99.99,,,-99.99,,2013-02-25 04:52:00,
2013-02-24 23:01:00,13.0,9.0,30.14,SSE,168,3.0,-999.0,85,-99.99,,,-99.99,,2013-02-25 05:01:00,
2013-02-24 23:11:00,13.0,9.0,30.14,SSE,168,3.0,-999.0,85,-99.99,,,-99.99,,2013-02-25 05:11:00,
2013-02-24 23:22:00,14.0,11.0,30.14,South,169,4.0,-999.0,86,-99.99,,,-99.99,,2013-02-25 05:22:00,
2013-02-24 23:32:00,14.0,11.0,30.14,South,169,4.0,-999.0,86,-99.99,,,-99.99,,2013-02-25 05:32:00,
2013-02-24 23:42:00,14.0,11.0,30.14,South,169,4.0,-999.0,86,-99.99,,,-99.99,,2013-02-25 05:42:00,
2013-02-24 23:52:00,13.0,9.0,30.14,South,169,4.0,-999.0,85,-99.99,,,-99.99,,2013-02-25 05:52:00,